createdAt,value
2023-11-20T00:01:18.122Z,94.47
2023-11-20T00:04:27.843Z,94.37
2023-11-20T00:05:52.216Z,94.62
2023-11-20T00:07:23.099Z,94.82
2023-11-20T00:09:44.403Z,94.57
2023-11-20T00:11:35.970Z,94.57
2023-11-20T00:13:13.355Z,94.37
2023-11-20T00:15:32.812Z,94.42
2023-11-20T00:18:09.828Z,94.47
2023-11-20T00:19:07.852Z,94.37
2023-11-20T00:20:16.741Z,94.17
2023-11-20T00:22:31.157Z,94.82
2023-11-20T00:25:52.789Z,94.82
2023-11-20T00:37:55.357Z,94.72
2023-11-20T00:39:06.348Z,94.72
2023-11-20T00:52:53.052Z,94.57
2023-11-20T00:55:44.143Z,94.37
2023-11-20T01:21:13.733Z,94.27
2023-11-20T01:24:18.964Z,94.42
2023-11-20T01:29:19.092Z,94.31
2023-11-20T01:31:27.080Z,94.31
2023-11-20T01:33:01.389Z,94.31
2023-11-20T01:34:29.988Z,94.17
2023-11-20T01:36:20.662Z,94.11
2023-11-20T01:38:58.251Z,94.27
2023-11-20T01:42:19.742Z,94.31
2023-11-20T01:43:50.462Z,94.31
2023-11-20T01:48:19.746Z,94.31
2023-11-20T01:55:23.096Z,94.42
2023-11-20T01:56:51.912Z,94.31
2023-11-20T01:58:24.038Z,94.31
2023-11-20T02:01:38.918Z,94.42
2023-11-20T02:05:09.294Z,94.52
2023-11-20T02:07:44.913Z,94.52
2023-11-20T02:11:26.491Z,94.31
2023-11-20T02:13:34.485Z,94.21
2023-11-20T02:17:44.989Z,94.11
2023-11-20T02:20:04.409Z,94.11
2023-11-20T02:21:34.412Z,94.21
2023-11-20T02:23:25.714Z,94.21
2023-11-20T02:26:15.094Z,94.31
2023-11-20T02:32:59.967Z,94.11
2023-11-20T02:34:49.233Z,94.15
2023-11-20T02:39:03.508Z,94.35
2023-11-20T02:41:24.282Z,94.46
2023-11-20T02:42:56.861Z,94.21
2023-11-20T02:46:17.451Z,94.31
2023-11-20T02:47:51.967Z,94.21
2023-11-20T02:50:54.939Z,94.21
2023-11-20T02:55:10.168Z,94.01
2023-11-20T02:57:44.250Z,94.15
2023-11-20T03:01:56.001Z,94.56
2023-11-20T03:08:53.771Z,94.26
2023-11-20T03:11:49.452Z,94.35
2023-11-20T03:15:17.610Z,94.01
2023-11-20T03:18:03.765Z,94.01
2023-11-20T03:21:11.473Z,94.15
2023-11-20T03:27:30.966Z,94.15
2023-11-20T03:39:25.557Z,93.95
2023-11-20T03:40:54.338Z,93.74
2023-11-20T03:47:49.678Z,93.85
2023-11-20T03:52:25.600Z,94.05
2023-11-20T03:54:27.516Z,93.95
2023-11-20T03:57:45.666Z,94.05
2023-11-20T04:00:24.104Z,94.09
2023-11-20T04:02:44.298Z,94.20
2023-11-20T04:04:35.608Z,94.15
2023-11-20T04:09:26.113Z,94.20
2023-11-20T04:14:48.135Z,93.99
2023-11-20T04:20:34.635Z,93.99
2023-11-20T04:24:53.447Z,94.30
2023-11-20T04:26:24.553Z,94.09
2023-11-20T04:31:12.863Z,94.09
2023-11-20T04:35:02.382Z,93.89
2023-11-20T04:38:48.033Z,93.99
2023-11-20T04:47:23.935Z,93.99
2023-11-20T04:50:04.351Z,93.99
2023-11-20T04:53:03.406Z,93.69
2023-11-20T04:55:05.219Z,93.59
2023-11-20T05:18:19.757Z,93.48
2023-11-20T05:19:49.121Z,93.59
2023-11-20T05:29:30.049Z,93.69
2023-11-20T05:31:29.338Z,93.79
2023-11-20T05:33:17.054Z,93.59
2023-11-20T05:42:15.957Z,93.48
2023-11-20T05:51:26.861Z,93.18
2023-11-20T05:55:29.769Z,93.02
2023-11-20T06:00:24.896Z,93.07
2023-11-20T06:06:19.631Z,92.77
2023-11-20T06:08:24.831Z,92.67
2023-11-20T06:14:14.678Z,92.26
2023-11-20T06:19:24.156Z,92.16
2023-11-20T06:22:34.658Z,92.10
2023-11-20T06:24:01.823Z,91.96
2023-11-20T06:26:12.200Z,91.75
2023-11-20T06:31:13.948Z,91.44
2023-11-20T06:39:47.116Z,91.35
2023-11-20T06:47:12.018Z,91.14
2023-11-20T06:49:44.251Z,91.14
2023-11-20T06:54:49.775Z,90.83
2023-11-20T06:59:15.163Z,90.63
2023-11-20T07:02:23.905Z,90.63
2023-11-20T07:03:56.397Z,90.63
2023-11-20T07:07:16.824Z,90.63
2023-11-20T07:11:48.206Z,90.53
2023-11-20T07:14:16.223Z,90.53
2023-11-20T07:17:05.440Z,90.32
2023-11-20T07:19:09.221Z,90.32
2023-11-20T07:20:38.203Z,90.42
2023-11-20T07:28:42.645Z,90.22
2023-11-20T07:42:03.605Z,90.22
2023-11-20T07:44:39.207Z,90.01
2023-11-20T07:46:35.780Z,89.92
2023-11-20T07:50:02.788Z,90.01
2023-11-20T07:53:21.471Z,90.01
2023-11-20T07:55:40.705Z,89.81
2023-11-20T08:00:38.979Z,90.12
2023-11-20T08:02:07.326Z,90.01
2023-11-20T08:04:56.893Z,90.12
2023-11-20T08:07:01.853Z,90.26
2023-11-20T08:10:30.229Z,90.22
2023-11-20T08:16:28.811Z,90.06
2023-11-20T08:18:30.190Z,89.96
2023-11-20T08:20:28.933Z,89.86
2023-11-20T08:22:33.004Z,89.75
2023-11-20T08:29:03.603Z,89.34
2023-11-20T08:30:32.736Z,89.34
2023-11-20T08:32:02.644Z,89.10
2023-11-20T08:33:32.476Z,89.20
2023-11-20T08:36:43.124Z,89.00
2023-11-20T08:39:01.982Z,88.90
2023-11-20T08:46:06.078Z,88.79
2023-11-20T08:53:34.101Z,88.73
2023-11-20T08:59:44.782Z,88.84
2023-11-20T09:01:13.128Z,89.10
2023-11-20T09:13:37.406Z,88.39
2023-11-20T09:20:05.356Z,88.28
2023-11-20T09:22:58.401Z,88.18
2023-11-20T09:27:11.510Z,87.98
2023-11-20T09:38:34.719Z,87.26
2023-11-20T09:40:24.241Z,86.96
2023-11-20T09:43:38.204Z,86.71
2023-11-20T09:49:36.760Z,86.61
2023-11-20T09:51:13.164Z,86.51
2023-11-20T09:59:21.224Z,85.80
2023-11-20T10:01:01.539Z,85.80
2023-11-20T10:01:57.134Z,85.84
2023-11-20T10:02:57.987Z,85.80
2023-11-20T10:06:41.574Z,85.74
2023-11-20T10:09:38.848Z,85.63
2023-11-20T10:12:36.744Z,85.74
2023-11-20T10:15:27.481Z,85.84
2023-11-20T10:18:26.944Z,85.74
2023-11-20T10:22:00.768Z,85.69
2023-11-20T10:25:00.867Z,85.28
2023-11-20T10:26:33.852Z,85.28
2023-11-20T10:29:44.466Z,84.98
2023-11-20T10:31:40.727Z,84.67
2023-11-20T10:33:10.430Z,84.78
2023-11-20T10:34:40.598Z,84.58
2023-11-20T10:36:46.425Z,84.58
2023-11-20T10:39:05.820Z,84.67
2023-11-20T10:43:27.087Z,84.67
2023-11-20T10:47:22.097Z,84.47
2023-11-20T10:50:56.625Z,84.17
2023-11-20T10:54:06.841Z,84.58
2023-11-20T10:56:38.664Z,84.53
2023-11-20T10:58:23.031Z,84.27
2023-11-20T11:03:44.013Z,83.86
2023-11-20T11:08:01.955Z,83.72
2023-11-20T11:10:02.482Z,83.31
2023-11-20T11:11:48.733Z,83.01
2023-11-20T11:13:19.742Z,83.07
2023-11-20T11:15:56.941Z,82.66
2023-11-20T11:20:25.082Z,81.95
2023-11-20T11:21:52.471Z,81.38
2023-11-20T11:24:23.612Z,81.65
2023-11-20T11:27:52.296Z,80.83
2023-11-20T11:31:50.704Z,80.73
2023-11-20T11:33:19.678Z,80.42
2023-11-20T11:36:33.487Z,80.93
2023-11-20T11:43:33.028Z,81.24
2023-11-20T11:48:29.623Z,81.16
2023-11-20T11:51:18.024Z,79.39
2023-11-20T11:54:34.132Z,78.72
2023-11-20T12:03:25.516Z,79.13
2023-11-20T12:04:59.204Z,79.33
2023-11-20T12:07:50.585Z,79.33
2023-11-20T12:12:29.957Z,80.21
2023-11-20T12:16:09.367Z,80.11
2023-11-20T12:20:16.149Z,79.13
2023-11-20T12:21:45.206Z,79.13
2023-11-20T12:31:01.325Z,79.68
2023-11-20T12:33:05.077Z,79.94
2023-11-20T12:36:27.893Z,79.77
2023-11-20T12:39:01.080Z,80.04
2023-11-20T12:41:33.998Z,79.74
2023-11-20T12:48:21.519Z,79.27
2023-11-20T12:57:46.342Z,79.57
2023-11-20T12:59:39.226Z,79.77
2023-11-20T13:05:10.780Z,79.88
2023-11-20T13:08:01.969Z,79.77
2023-11-20T13:12:17.258Z,79.68
2023-11-20T13:14:07.033Z,79.41
2023-11-20T13:16:08.926Z,79.61
2023-11-20T13:26:39.125Z,80.02
2023-11-20T13:28:08.069Z,80.32
2023-11-20T13:30:10.119Z,80.22
2023-11-20T13:31:39.991Z,80.02
2023-11-20T13:35:16.078Z,80.02
2023-11-20T13:41:37.355Z,80.05
2023-11-20T13:45:30.163Z,80.19
2023-11-20T13:48:40.321Z,81.11
2023-11-20T13:52:31.851Z,81.82
2023-11-20T13:56:13.300Z,82.64
2023-11-20T13:59:32.497Z,83.15
2023-11-20T14:06:50.586Z,83.76
2023-11-20T14:10:49.080Z,84.06
2023-11-20T14:14:27.167Z,84.37
2023-11-20T14:18:49.495Z,84.27
2023-11-20T14:20:14.398Z,84.27
2023-11-20T14:23:43.040Z,84.27
2023-11-20T14:26:29.864Z,84.37
2023-11-20T14:28:51.030Z,84.78
2023-11-20T14:31:01.466Z,84.88
2023-11-20T14:34:36.339Z,84.98
2023-11-20T14:41:13.872Z,84.72
2023-11-20T14:47:03.785Z,84.04
2023-11-20T14:49:21.001Z,84.14
2023-11-20T14:53:18.041Z,84.14
2023-11-20T14:54:48.904Z,84.14
2023-11-20T14:57:36.227Z,84.34
2023-11-20T15:00:16.659Z,84.25
2023-11-20T15:03:05.172Z,84.25
2023-11-20T15:08:30.556Z,84.04
2023-11-20T15:10:02.815Z,83.94
2023-11-20T15:11:35.812Z,83.94
2023-11-20T15:14:04.761Z,83.63
2023-11-20T15:16:08.792Z,83.06
2023-11-20T15:19:19.889Z,83.37
2023-11-20T15:21:10.720Z,83.47
2023-11-20T15:23:11.853Z,83.26
2023-11-20T15:24:43.840Z,83.16
2023-11-20T15:26:13.154Z,83.00
2023-11-20T15:27:48.498Z,82.69
2023-11-20T15:29:37.440Z,82.69
2023-11-20T15:31:06.977Z,82.89
2023-11-20T15:35:26.329Z,83.04
2023-11-20T15:38:25.536Z,83.44
2023-11-20T15:40:44.673Z,83.65
2023-11-20T15:43:34.245Z,83.79
2023-11-20T15:46:45.338Z,83.89
2023-11-20T15:48:14.265Z,84.00
2023-11-20T15:50:09.991Z,84.09
2023-11-20T15:54:29.174Z,84.55
2023-11-20T15:58:14.460Z,84.79
2023-11-20T16:01:05.669Z,84.99
2023-11-20T16:02:57.877Z,85.10
2023-11-20T16:05:57.117Z,85.20
2023-11-20T16:11:54.709Z,85.55
2023-11-20T16:13:56.432Z,85.55
2023-11-20T16:16:13.850Z,85.64
2023-11-20T16:20:32.913Z,85.79
2023-11-20T16:22:08.767Z,85.79
2023-11-20T16:24:35.425Z,85.89
2023-11-20T16:26:54.028Z,86.04
2023-11-20T16:30:37.413Z,86.14
2023-11-20T16:31:16.362Z,86.14
2023-11-20T16:32:16.305Z,86.14
2023-11-20T16:33:16.267Z,86.24
2023-11-20T16:34:52.001Z,86.34
2023-11-20T16:37:47.319Z,86.55
2023-11-20T16:41:48.756Z,86.69
2023-11-20T16:48:39.885Z,86.79
2023-11-20T16:55:41.905Z,87.04
2023-11-20T17:02:12.910Z,87.34
2023-11-20T17:05:09.541Z,87.45
2023-11-20T17:06:42.921Z,87.45
2023-11-20T17:12:22.280Z,87.55
2023-11-20T17:15:45.183Z,87.59
2023-11-20T17:18:04.263Z,87.49
2023-11-20T17:20:48.658Z,87.59
2023-11-20T17:25:45.816Z,87.70
2023-11-20T17:28:14.387Z,87.79
2023-11-20T17:35:21.048Z,87.90
2023-11-20T17:44:41.632Z,87.94
2023-11-20T17:49:41.856Z,88.04
2023-11-20T17:53:15.691Z,88.04
2023-11-20T17:58:29.519Z,88.18
2023-11-20T18:02:01.226Z,88.18
2023-11-20T18:03:50.375Z,88.18
2023-11-20T18:05:51.317Z,88.18
2023-11-20T18:11:35.390Z,88.08
2023-11-20T18:13:02.351Z,88.08
2023-11-20T18:21:12.094Z,88.53
2023-11-20T18:26:42.511Z,88.53
2023-11-20T18:30:40.425Z,88.64
2023-11-20T18:32:10.901Z,88.64
2023-11-20T18:34:29.993Z,88.64
2023-11-20T18:38:28.864Z,88.64
2023-11-20T18:43:57.144Z,88.78
2023-11-20T18:46:05.466Z,88.78
2023-11-20T18:48:05.438Z,88.78
2023-11-20T18:51:42.887Z,88.89
2023-11-20T18:55:44.360Z,88.89
2023-11-20T18:58:57.522Z,88.89
2023-11-20T19:04:25.867Z,89.13
2023-11-20T19:08:59.478Z,89.13
2023-11-20T19:16:39.254Z,89.03
2023-11-20T19:19:10.042Z,89.03
2023-11-20T19:23:38.686Z,89.13
2023-11-20T19:27:56.407Z,89.13
2023-11-20T19:30:58.579Z,89.23
2023-11-20T19:35:55.484Z,89.34
2023-11-20T19:42:50.131Z,89.44
2023-11-20T19:44:49.331Z,89.54
2023-11-20T19:54:20.336Z,89.75
2023-11-20T19:59:24.383Z,89.85
2023-11-20T20:02:18.250Z,89.95
2023-11-20T20:04:21.015Z,89.95
2023-11-20T20:06:13.146Z,89.95
2023-11-20T20:08:27.065Z,89.95
2023-11-20T20:16:01.469Z,89.95
2023-11-20T20:19:52.155Z,90.06
2023-11-20T20:22:30.713Z,90.06
2023-11-20T20:24:28.801Z,90.06
2023-11-20T20:26:18.488Z,90.06
2023-11-20T20:32:24.546Z,90.06
2023-11-20T20:34:54.341Z,90.06
2023-11-20T20:37:32.032Z,90.06
2023-11-20T20:40:15.223Z,90.06
2023-11-20T20:44:41.211Z,90.06
2023-11-20T20:46:12.277Z,90.06
2023-11-20T20:50:46.994Z,90.00
2023-11-20T20:53:59.697Z,90.00
2023-11-20T20:58:45.357Z,90.09
2023-11-20T21:03:53.815Z,90.20
2023-11-20T21:08:24.291Z,90.20
2023-11-20T21:09:54.319Z,90.30
2023-11-20T21:13:49.842Z,90.30
2023-11-20T21:16:11.821Z,90.30
2023-11-20T21:19:01.372Z,90.30
2023-11-20T21:20:32.266Z,90.30
2023-11-20T21:23:34.911Z,90.30
2023-11-20T21:25:01.946Z,90.41
2023-11-20T21:26:32.389Z,90.30
2023-11-20T21:30:13.402Z,90.30
2023-11-20T21:32:04.660Z,90.41
2023-11-20T21:36:16.214Z,90.41
2023-11-20T21:42:21.887Z,90.57
2023-11-20T21:43:54.120Z,90.57
2023-11-20T21:45:51.824Z,90.57
2023-11-20T21:48:13.381Z,90.57
2023-11-20T21:57:35.492Z,90.67
2023-11-20T22:00:56.211Z,90.78
2023-11-20T22:04:02.442Z,90.67
2023-11-20T22:06:33.887Z,90.72
2023-11-20T22:11:57.773Z,90.72
2023-11-20T22:15:00.256Z,90.72
2023-11-20T22:17:05.247Z,90.72
2023-11-20T22:19:07.051Z,90.72
2023-11-20T22:21:05.229Z,90.72
2023-11-20T22:22:34.076Z,90.72
2023-11-20T22:24:59.464Z,90.72
2023-11-20T22:29:17.885Z,90.72
2023-11-20T22:31:19.322Z,90.72
2023-11-20T22:36:03.387Z,90.72
2023-11-20T22:40:12.752Z,90.72
2023-11-20T22:42:31.786Z,90.72
2023-11-20T22:45:59.821Z,90.81
2023-11-20T22:47:30.245Z,90.88
2023-11-20T22:50:54.934Z,90.78
2023-11-20T22:52:23.904Z,90.78
2023-11-20T22:54:54.800Z,90.88
2023-11-20T22:56:22.509Z,90.88
2023-11-20T22:57:51.765Z,90.88
2023-11-20T23:00:18.732Z,90.88
2023-11-20T23:03:42.580Z,90.94
2023-11-20T23:07:58.712Z,91.04
2023-11-20T23:13:38.969Z,91.20
2023-11-20T23:16:42.953Z,91.20
2023-11-20T23:33:05.760Z,91.16
2023-11-20T23:34:36.966Z,91.27
2023-11-20T23:36:40.124Z,91.37
2023-11-20T23:38:10.707Z,91.27
2023-11-20T23:40:41.037Z,91.37
2023-11-20T23:45:28.885Z,91.57
2023-11-20T23:49:44.143Z,91.57
2023-11-20T23:51:13.045Z,91.53
2023-11-20T23:53:48.753Z,91.53
